Newburg, North Dakota
Current Conditions -  °F | °C
As of 4:58 PM on Saturday 22 Nov 2014 (Local Time) from KMIB Reporting Station
Scattered Clouds Scattered Clouds  
Wind Chill: 35°   Ceiling: Unl
Heat Index: 40°   Visibility: 10mi
Dew Point: 31°   Wind: 8mph
Humidity: 69%   Direction: 160°SSE
Pressure: 29.25"   Gusts: NA
Location:  48.72°N, 100.91°W
Report Text: KMIB 222258Z AUTO 16007KT 10SM SCT065 SCT085 05/M01 A2925 RMK AO2 SLP927 T00451008
Loading
Personal Weather Stations






























Interactive Weather Map New forecast layout! Learn more

10-Day Weather Forecast

Advertisements
Track Severe Weather on mobile